Relevés horaires Oron (Suisse)


Relevés horaires à Oron - Vendredi 03 Août 2018
Heure UTC1 Température [°C] Vent [km/h] Hum. [%] Pres.4 [hPa] Visi. [Km] Nébu. [octa] Préc.5 [mm] Cond.
2m. Res. Ros. Dir.2 Vit. Moy. Raf.3
23:00 23.4 23.4 16.4 ENE 13.0 -- -- 65 850 -- -- -- --
22:00 23.8 23.8 16.1 NE 16.7 -- -- 62 850 -- -- -- --
21:00 24.6 24.6 15.4 NE 18.5 -- 22.2 57 850(1.1/3h) -- -- -- --
20:00 25.1 25.1 14.9 NE 14.8 -- -- 53 850 -- -- -- --
19:00 25.8 25.8 14.9 NE 14.8 -- -- 51 850 -- -- -- --
18:00 27.4 27.4 15.7 NE 11.1 -- 31.5 49 850(-0.4/3h) -- -- 0/12h
--
17:00 29.0 29.0 15.7 NNE 16.7 -- -- 45 850 -- -- -- --
16:00 29.5 29.5 15.5 NNE 14.8 -- -- 43 850 -- -- -- --
15:00 28.8 28.8 16.0 N 16.7 -- 31.5 46 850(-0.9/3h) -- -- -- --
14:00 28.9 28.9 15.8 NE 9.3 -- -- 45 850 -- -- -- --
13:00 27.9 27.9 17.2 NNO 13.0 -- -- 52 850 -- -- -- --
12:00 27.2 27.2 16.8 NNO 16.7 -- 27.8 53 850(-0.8/3h) -- -- 0/6h
--
11:00 26.4 26.4 17.7 NNO 11.1 -- -- 59 850 -- -- -- --
10:00 25.0 25.0 17.3 N 9.3 -- -- 62 850 -- -- -- --
09:00 23.6 23.6 17.2 NO 7.4 -- 13.0 67 850(0.2/3h) -- -- -- --
08:00 21.7 21.7 17.2 NO 5.6 -- -- 76 850 -- -- -- --
07:00 20.2 20.2 16.0 NO 3.7 -- -- 77 850 -- -- -- --
06:00 19.4 19.4 15.5 N 1.9 -- 25.9 78 850(0.7/3h) -- -- 0/12h
0/24h
--
05:00 18.2 18.2 14.7 SE 1.9 -- -- 80 850 -- -- -- --
04:00 18.1 18.1 14.8 E 11.1 -- -- 81 850 -- -- -- --
03:00 19.0 19.0 15.0 NE 3.7 -- 25.9 78 850(-0.3/3h) -- -- -- --
02:00 19.7 19.7 15.1 N 1.9 -- -- 75 850 -- -- -- --
01:00 20.8 20.8 15.0 ENE 14.8 -- -- 69 850 -- -- -- --
00:00 20.9 20.9 15.0 E 1.9 -- 33.3 69 850(-0.7/3h) -- -- 0/6h
--

1 Coordinated Universal Time. Actuellement il est 20:00 locale et 18:00 UTC.

2 Le vent souffle depuis la direction indiquée vers la direction oposée.

3 Les rafales max. sont disponible 40 min après l'heure du relevé.

4 Pour les stations d'altitude (plus de 600m) le géopotentiel du niveau le plus proche de la pression obligatoire est indiqué.

5 Les stations disposant d'un diffuseur peuvent indiquer "trace". Cela signifie que des précipitations ont touchés le sol mais que la quantité est inférieure à 0.1 mm.

Récapitulatif de la journée
Température [°C] Vent [km/h] Ensoleillement4 [h] Precipitations totale5 [mm] Pression [Hpa]
Min1 Max.2 Moy.3 Max. Min Max.
17.9 29.5 0 33.3 13 h 12 min 0 850.0 850.0

1 Température minimale relevée entre 18:00 UTC la veille et 18:00 UTC le jour donné.

2 Température maximale relevée entre 06:00 UTC le jour donné et 06:00 UTC le lendemain.

3 Vent moyen de la journée basé sur les relevés horaires.

4 Ensoleillement en heures relevé entre 06:00 UTC la veille et 06:00 UTC le jour donné.

5 Précipitations totales tombées entre 06:00 UTC la jour donné et 06:00 UTC le lendemain.

Graphiques horaires